Time;durP1;ratioP1;P1;durP2;ratioP2;P2;SDS_P1;SDS_P2;PMS_P1;PMS_P2;Temp;Humidity;BMP_temperature;BMP_pressure;BME280_temperature;BME280_humidity;BME280_pressure;Samples;Min_cycle;Max_cycle;Signal;HPM_P1;HPM_P2
2022/05/07 00:02:06;;;;;;;11.75;4.40;;;;;;;20.16;38.72;102066.72;5016281;28;20030;-66
2022/05/07 00:04:35;;;;;;;7.85;3.38;;;;;;;20.10;39.01;102061.94;5016082;28;20022;-66
2022/05/07 00:07:01;;;;;;;9.05;3.72;;;;;;;20.06;39.19;102068.72;4998926;28;20076;-66
2022/05/07 00:09:27;;;;;;;8.63;3.63;;;;;;;20.02;38.86;102069.19;5015944;28;20022;-66
2022/05/07 00:11:52;;;;;;;11.15;4.25;;;;;;;20.00;39.17;102076.66;5016278;28;20026;-66
2022/05/07 00:14:17;;;;;;;7.85;3.60;;;;;;;19.98;39.15;102079.56;5030850;28;20037;-66
2022/05/07 00:19:27;;;;;;;8.07;3.67;;;;;;;19.89;39.29;102061.47;5015515;28;20092;-66
2022/05/07 00:21:52;;;;;;;6.57;3.67;;;;;;;19.84;39.15;102060.22;5015937;28;20029;-66
2022/05/07 00:24:20;;;;;;;6.53;3.90;;;;;;;19.79;39.04;102062.59;5016168;28;20026;-66
2022/05/07 00:26:46;;;;;;;6.43;3.92;;;;;;;19.74;39.61;102060.31;5016198;28;20077;-65
2022/05/07 00:29:12;;;;;;;6.07;3.83;;;;;;;19.70;39.38;102061.66;5015902;28;20025;-66
2022/05/07 00:31:37;;;;;;;10.70;4.63;;;;;;;19.68;39.11;102055.53;5015721;28;20033;-65
2022/05/07 00:34:03;;;;;;;9.85;4.30;;;;;;;19.67;39.06;102064.69;5015484;28;20487;-66
2022/05/07 00:36:28;;;;;;;5.60;4.43;;;;;;;19.66;39.34;102062.97;5015892;28;20034;-66
2022/05/07 00:38:53;;;;;;;6.97;3.40;;;;;;;19.65;39.37;102066.72;5015710;28;20026;-65
2022/05/07 00:41:19;;;;;;;9.93;4.20;;;;;;;19.61;39.10;102054.44;5015618;28;20407;-66
2022/05/07 00:43:44;;;;;;;10.23;3.97;;;;;;;19.58;39.61;102049.31;5015554;28;20400;-66
2022/05/07 00:46:11;;;;;;;13.43;3.58;;;;;;;19.54;39.97;102058.81;5015232;28;20487;-66
2022/05/07 00:48:37;;;;;;;11.38;4.63;;;;;;;19.53;39.59;102057.09;5015417;28;20036;-65
2022/05/07 00:53:48;;;;;;;9.48;4.55;;;;;;;19.47;40.04;102053.16;5000699;28;20454;-66
2022/05/07 00:56:14;;;;;;;7.60;3.95;;;;;;;19.45;39.38;102054.31;5015324;28;20029;-66
2022/05/07 00:58:39;;;;;;;11.25;3.85;;;;;;;19.43;40.20;102045.47;5015265;28;20080;-67
2022/05/07 01:01:05;;;;;;;7.72;4.43;;;;;;;19.39;40.33;102044.94;4997110;28;20033;-66
2022/05/07 01:03:31;;;;;;;10.93;4.43;;;;;;;19.37;40.12;102043.34;5014997;28;20113;-66
2022/05/07 01:05:56;;;;;;;6.90;3.63;;;;;;;19.35;39.81;102045.34;5014997;28;20479;-66
2022/05/07 01:08:22;;;;;;;7.35;3.78;;;;;;;19.32;39.50;102045.69;5030440;28;20083;-65
2022/05/07 01:10:48;;;;;;;7.50;4.07;;;;;;;19.32;39.82;102045.69;5015035;28;20026;-66
2022/05/07 01:13:13;;;;;;;13.10;4.85;;;;;;;19.31;40.36;102046.69;5015028;28;20040;-66
2022/05/07 01:15:45;;;;;;;10.43;5.10;;;;;;;19.27;40.46;102037.97;5014933;28;20026;-65
2022/05/07 01:18:12;;;;;;;6.55;4.35;;;;;;;19.25;39.75;102033.72;5014864;28;20029;-65
2022/05/07 01:20:38;;;;;;;8.40;4.30;;;;;;;19.23;39.83;102036.59;5015089;28;20030;-66
2022/05/07 01:23:04;;;;;;;9.68;5.68;;;;;;;19.19;40.18;102033.34;5015290;28;20057;-66
2022/05/07 01:25:29;;;;;;;13.10;5.35;;;;;;;19.18;40.69;102033.47;5014731;28;20030;-66
2022/05/07 01:27:55;;;;;;;12.05;5.60;;;;;;;19.17;39.98;102031.78;5014745;28;20034;-65
2022/05/07 01:30:20;;;;;;;10.15;5.07;;;;;;;19.16;39.81;102028.22;5014667;28;20595;-67
2022/05/07 01:32:46;;;;;;;12.07;5.55;;;;;;;19.16;40.33;102033.66;5014642;28;20562;-66
2022/05/07 01:35:11;;;;;;;13.32;5.90;;;;;;;19.15;40.43;102034.66;5014794;28;20115;-67
2022/05/07 01:37:36;;;;;;;11.02;5.40;;;;;;;19.11;41.14;102025.13;5014001;28;20022;-66
2022/05/07 01:40:02;;;;;;;8.15;4.93;;;;;;;19.11;40.50;102033.25;5014400;28;20092;-65
2022/05/07 01:42:28;;;;;;;11.00;5.32;;;;;;;19.08;41.26;102022.72;5014528;28;20026;-66
2022/05/07 01:44:53;;;;;;;12.40;5.30;;;;;;;19.06;40.11;102032.88;4996947;28;20033;-67
2022/05/07 01:50:03;;;;;;;9.98;5.05;;;;;;;19.02;41.06;102023.31;5014738;28;20072;-66
2022/05/07 01:52:28;;;;;;;12.13;5.55;;;;;;;19.01;41.42;102029.75;5014231;28;20049;-66
2022/05/07 01:54:54;;;;;;;11.48;6.35;;;;;;;19.00;41.51;102028.06;5014269;28;20026;-66
2022/05/07 01:57:19;;;;;;;8.55;4.78;;;;;;;19.00;40.54;102033.50;5014353;28;20048;-65
2022/05/07 01:59:44;;;;;;;11.73;4.95;;;;;;;19.00;41.47;102029.91;5014352;28;20570;-66
2022/05/07 02:02:10;;;;;;;11.05;5.60;;;;;;;19.00;40.89;102028.06;5014260;28;20034;-66
2022/05/07 02:04:35;;;;;;;13.40;5.13;;;;;;;19.02;40.81;102026.03;5014282;28;20480;-66
2022/05/07 02:07:00;;;;;;;12.20;5.30;;;;;;;19.04;40.61;102029.44;5014109;28;20476;-66
2022/05/07 02:09:26;;;;;;;10.88;4.93;;;;;;;19.08;41.00;102027.28;5014127;28;20057;-66
2022/05/07 02:11:51;;;;;;;11.68;5.82;;;;;;;19.09;40.82;102026.28;5014297;28;20112;-66
2022/05/07 02:14:16;;;;;;;12.07;5.90;;;;;;;19.08;41.24;102030.84;4999004;28;20029;-65
2022/05/07 02:16:42;;;;;;;7.10;4.50;;;;;;;19.08;41.58;102030.00;5020080;28;20089;-66
2022/05/07 02:19:07;;;;;;;13.50;5.68;;;;;;;19.08;41.32;102032.72;5020465;28;20032;-65
2022/05/07 02:21:32;;;;;;;11.68;5.82;;;;;;;19.05;41.26;102025.72;5020352;28;20032;-66
2022/05/07 02:23:58;;;;;;;13.00;5.50;;;;;;;19.07;40.92;102029.13;5020603;28;20022;-66
2022/05/07 02:26:23;;;;;;;11.60;6.03;;;;;;;19.08;42.07;102027.28;5003055;28;20030;-65
2022/05/07 02:28:48;;;;;;;11.73;5.15;;;;;;;19.07;41.77;102026.41;5020482;28;20022;-66
2022/05/07 02:31:14;;;;;;;12.40;5.20;;;;;;;19.07;42.05;102028.28;5020580;28;20083;-66
2022/05/07 02:33:39;;;;;;;11.68;5.65;;;;;;;19.05;41.38;102024.88;5020607;28;20022;-66
2022/05/07 02:36:05;;;;;;;14.25;5.20;;;;;;;19.03;41.18;102021.47;5020637;28;20021;-66
2022/05/07 02:38:30;;;;;;;16.88;6.25;;;;;;;19.02;41.55;102026.03;5020579;28;20026;-66
2022/05/07 02:43:39;;;;;;;10.77;5.43;;;;;;;19.00;40.94;102022.63;5020415;28;20033;-66
2022/05/07 02:46:05;;;;;;;16.77;6.00;;;;;;;19.02;41.99;102023.31;5020287;28;20057;-66
2022/05/07 02:48:35;;;;;;;10.20;5.20;;;;;;;19.03;42.40;102019.59;5020274;28;20025;-66
2022/05/07 02:51:01;;;;;;;14.82;6.53;;;;;;;19.05;41.50;102019.44;5020386;28;20041;-66
2022/05/07 02:53:26;;;;;;;11.23;6.35;;;;;;;19.05;41.65;102020.31;5020148;28;20028;-64
2022/05/07 02:55:51;;;;;;;15.63;6.05;;;;;;;19.07;41.59;102018.28;5019612;28;20080;-66
2022/05/07 02:58:17;;;;;;;12.15;5.57;;;;;;;19.06;41.66;102011.16;5020179;28;20025;-66
2022/05/07 03:00:42;;;;;;;14.63;6.05;;;;;;;19.07;41.73;102009.25;5020383;28;20029;-66
2022/05/07 03:03:07;;;;;;;13.82;6.00;;;;;;;19.07;41.24;102010.13;5020183;28;20472;-66
2022/05/07 03:05:33;;;;;;;11.73;5.93;;;;;;;19.08;41.27;102009.13;5020408;28;20466;-65
2022/05/07 03:07:59;;;;;;;10.73;5.05;;;;;;;19.08;41.71;102011.84;5020502;28;20033;-66
2022/05/07 03:10:25;;;;;;;8.57;5.07;;;;;;;19.08;42.27;102014.56;5020242;28;20037;-65
2022/05/07 03:12:50;;;;;;;14.80;5.65;;;;;;;19.06;41.92;102010.28;5020010;28;20392;-65
2022/05/07 03:15:16;;;;;;;17.95;5.40;;;;;;;19.04;40.85;102005.00;5020327;28;20064;-66
2022/05/07 03:17:41;;;;;;;16.13;5.60;;;;;;;19.02;41.13;102003.44;5020264;28;20041;-67
2022/05/07 03:20:10;;;;;;;8.45;5.38;;;;;;;19.00;41.14;102000.91;5020079;28;20022;-65
2022/05/07 03:22:35;;;;;;;11.05;5.65;;;;;;;18.99;41.60;102004.63;5002471;28;20117;-66
2022/05/07 03:25:01;;;;;;;12.35;7.22;;;;;;;19.00;42.05;102006.34;5019667;28;20442;-66
2022/05/07 03:27:29;;;;;;;12.60;6.28;;;;;;;18.99;41.09;102004.63;5016187;28;20487;-66
2022/05/07 03:29:54;;;;;;;8.68;5.80;;;;;;;18.98;41.79;102002.91;5016829;28;20025;-66
2022/05/07 03:32:20;;;;;;;14.05;5.75;;;;;;;18.97;41.39;101998.50;5016354;28;20022;-66
2022/05/07 03:34:45;;;;;;;11.02;5.78;;;;;;;18.95;41.92;101997.81;5016790;28;20053;-66
2022/05/07 03:37:10;;;;;;;11.60;5.82;;;;;;;18.95;42.48;102003.25;5016683;28;20476;-65
2022/05/07 03:39:36;;;;;;;11.95;4.97;;;;;;;18.94;42.38;102006.94;5016465;28;20381;-66
2022/05/07 03:42:01;;;;;;;10.98;5.43;;;;;;;18.92;42.36;102006.25;5016666;28;20372;-67
2022/05/07 03:44:27;;;;;;;7.88;4.65;;;;;;;18.91;42.27;102001.81;5016557;28;20048;-66
2022/05/07 03:46:52;;;;;;;17.77;5.78;;;;;;;18.92;41.81;102011.69;5016297;28;20046;-65
2022/05/07 03:49:17;;;;;;;14.05;5.53;;;;;;;18.92;41.96;102008.97;5016324;28;20030;-66
2022/05/07 03:54:27;;;;;;;10.57;5.95;;;;;;;18.91;41.11;102012.69;5016748;28;20036;-66
2022/05/07 03:56:52;;;;;;;16.85;5.97;;;;;;;18.89;42.35;102003.00;5016440;28;20026;-66
2022/05/07 03:59:18;;;;;;;10.10;5.85;;;;;;;18.88;42.22;102013.00;5016454;28;20022;-65
2022/05/07 04:01:43;;;;;;;11.63;6.25;;;;;;;18.87;41.54;102011.28;5016575;28;20018;-65
2022/05/07 04:04:08;;;;;;;11.95;6.93;;;;;;;18.85;41.25;102018.72;5016529;28;20164;-67
2022/05/07 04:06:34;;;;;;;12.85;6.00;;;;;;;18.84;41.46;102014.31;5016136;28;20064;-67
2022/05/07 04:08:59;;;;;;;12.10;5.97;;;;;;;18.85;41.97;102016.00;5016152;28;20034;-66
2022/05/07 04:11:24;;;;;;;13.77;6.25;;;;;;;18.84;42.03;102011.63;5015654;28;20029;-66
2022/05/07 04:13:51;;;;;;;12.48;5.57;;;;;;;18.85;42.35;102012.44;5016222;28;20030;-66
2022/05/07 04:16:17;;;;;;;11.70;6.65;;;;;;;18.85;41.93;102002.44;5016197;28;20032;-66
2022/05/07 04:18:42;;;;;;;15.07;6.97;;;;;;;18.88;42.32;102012.13;5016080;28;20026;-66
2022/05/07 04:21:07;;;;;;;11.50;6.50;;;;;;;18.89;42.58;102014.72;5031333;28;20382;-66
2022/05/07 04:23:33;;;;;;;14.02;6.45;;;;;;;18.91;42.02;102018.13;5016099;28;20387;-65
2022/05/07 04:25:58;;;;;;;12.57;5.82;;;;;;;18.92;42.33;102018.97;5015919;28;20526;-66
2022/05/07 04:28:23;;;;;;;13.80;6.32;;;;;;;18.94;42.43;102019.66;5016155;28;20068;-65
2022/05/07 04:30:49;;;;;;;12.40;6.28;;;;;;;18.94;42.30;102025.97;5015807;28;20113;-66
2022/05/07 04:33:17;;;;;;;14.25;5.70;;;;;;;18.97;42.29;102017.50;5015632;28;20108;-65
2022/05/07 04:35:42;;;;;;;22.30;6.95;;;;;;;18.99;42.28;102015.47;5015932;28;20034;-66
2022/05/07 04:38:08;;;;;;;11.63;6.28;;;;;;;19.04;42.23;102015.00;5015387;28;20065;-66
2022/05/07 04:40:33;;;;;;;15.07;6.90;;;;;;;19.08;42.20;102014.56;5015741;28;20030;-65
2022/05/07 04:42:58;;;;;;;11.40;6.28;;;;;;;19.15;41.94;102017.53;5015495;28;20032;-65
2022/05/07 04:45:25;;;;;;;14.40;6.75;;;;;;;19.21;42.56;102019.59;5015403;28;20042;-67
2022/05/07 04:47:51;;;;;;;8.18;5.03;;;;;;;19.26;42.14;102020.00;5014884;28;20041;-66
2022/05/07 04:50:17;;;;;;;14.45;6.60;;;;;;;19.32;41.87;102022.06;5022355;28;20030;-66
2022/05/07 04:52:42;;;;;;;12.10;7.13;;;;;;;19.37;42.32;102019.75;5006539;28;20368;-66
2022/05/07 04:55:07;;;;;;;11.85;5.90;;;;;;;19.46;42.44;102023.38;5022448;28;20034;-66
2022/05/07 04:57:33;;;;;;;15.77;6.15;;;;;;;19.56;42.19;102024.16;5024855;28;20017;-66
2022/05/07 04:59:59;;;;;;;12.45;7.13;;;;;;;19.67;41.84;102021.19;5005993;28;20022;-66
2022/05/07 05:02:25;;;;;;;9.52;6.25;;;;;;;19.77;41.70;102028.22;5023130;28;20025;-66
2022/05/07 05:04:51;;;;;;;14.80;6.60;;;;;;;19.86;41.38;102018.25;5024852;28;20357;-66
2022/05/07 05:07:16;;;;;;;11.65;6.13;;;;;;;19.95;41.83;102020.03;5023412;28;20387;-66
2022/05/07 05:09:42;;;;;;;12.88;7.03;;;;;;;20.03;41.27;102020.06;5023174;28;20430;-67
2022/05/07 05:12:07;;;;;;;15.85;7.15;;;;;;;20.12;41.27;102031.84;5024517;28;20104;-66
2022/05/07 05:17:16;;;;;;;13.15;6.63;;;;;;;20.23;41.09;102029.72;5025691;28;20091;-66
2022/05/07 05:19:42;;;;;;;15.10;6.13;;;;;;;20.30;41.39;102025.34;5022946;28;20025;-67
2022/05/07 05:22:07;;;;;;;15.40;6.50;;;;;;;20.40;41.25;102035.25;5024790;28;20029;-66
2022/05/07 05:24:32;;;;;;;11.68;6.38;;;;;;;20.49;41.16;102031.56;5031239;28;20089;-66
2022/05/07 05:26:58;;;;;;;12.40;6.18;;;;;;;20.57;41.08;102031.59;5026576;28;20120;-66
2022/05/07 05:29:23;;;;;;;10.57;5.65;;;;;;;20.63;40.95;102039.94;5033668;28;20082;-66
2022/05/07 05:31:49;;;;;;;13.70;6.03;;;;;;;20.71;40.65;102044.56;5025138;28;20152;-66
2022/05/07 05:34:14;;;;;;;14.05;6.10;;;;;;;20.81;41.11;102054.28;5024869;28;20483;-66
2022/05/07 05:36:39;;;;;;;11.05;5.90;;;;;;;20.89;41.18;102048.00;5029972;28;20029;-66
2022/05/07 05:39:07;;;;;;;12.35;6.72;;;;;;;20.98;40.46;102059.78;5022348;28;20029;-66
2022/05/07 05:41:33;;;;;;;11.93;6.05;;;;;;;21.05;39.83;102058.94;5022791;28;20028;-66
2022/05/07 05:43:59;;;;;;;12.85;6.43;;;;;;;21.13;40.15;102067.19;5024143;28;20022;-66
2022/05/07 05:46:24;;;;;;;14.23;6.57;;;;;;;21.18;40.56;102064.81;5022032;28;20053;-67
2022/05/07 05:48:49;;;;;;;17.77;6.82;;;;;;;21.24;40.29;102066.88;5030187;28;20024;-66
2022/05/07 05:51:15;;;;;;;11.30;6.63;;;;;;;21.31;40.99;102075.19;5016512;28;20200;-66
2022/05/07 05:53:40;;;;;;;13.13;6.43;;;;;;;21.37;40.59;102069.94;5034233;28;20029;-66
2022/05/07 05:56:05;;;;;;;10.38;6.43;;;;;;;21.41;40.71;102079.47;5034094;28;20049;-65
2022/05/07 05:58:34;;;;;;;12.05;6.18;;;;;;;21.43;40.46;102080.16;5034038;28;20471;-65
2022/05/07 06:01:00;;;;;;;13.98;6.13;;;;;;;21.45;40.24;102078.13;5034219;28;20026;-66
2022/05/07 06:03:26;;;;;;;12.52;6.47;;;;;;;21.47;40.35;102073.34;5033439;28;20103;-65
2022/05/07 06:05:52;;;;;;;14.82;6.85;;;;;;;21.46;40.31;102071.66;5033905;28;20026;-66
2022/05/07 06:08:17;;;;;;;12.15;6.22;;;;;;;21.46;40.61;102068.94;5033768;28;20056;-65
2022/05/07 06:10:42;;;;;;;14.23;7.53;;;;;;;21.48;40.69;102072.31;5034048;28;20435;-66
2022/05/07 06:13:07;;;;;;;14.10;6.97;;;;;;;21.49;40.05;102067.72;5033980;28;20382;-66
2022/05/07 06:15:33;;;;;;;10.90;6.72;;;;;;;21.52;40.06;102072.00;5033502;28;20467;-66
2022/05/07 06:17:58;;;;;;;17.10;8.00;;;;;;;21.52;40.84;102077.44;5033845;28;20363;-65
2022/05/07 06:20:23;;;;;;;16.65;6.82;;;;;;;21.53;40.74;102068.22;5033872;28;20033;-65
2022/05/07 06:22:49;;;;;;;18.55;7.38;;;;;;;21.56;40.58;102073.34;5033824;28;20029;-66
2022/05/07 06:28:01;;;;;;;14.30;7.32;;;;;;;21.64;40.38;102084.25;5033495;28;20036;-67
2022/05/07 06:30:26;;;;;;;11.88;6.53;;;;;;;21.66;40.08;102079.50;5033278;28;20033;-66
2022/05/07 06:32:52;;;;;;;15.70;7.82;;;;;;;21.71;40.99;102090.75;5033739;28;20033;-67
2022/05/07 06:35:17;;;;;;;14.48;7.25;;;;;;;21.75;40.52;102089.34;5033808;28;20030;-67
2022/05/07 06:37:47;;;;;;;15.30;6.97;;;;;;;21.80;40.42;102089.72;5033827;28;20467;-68
2022/05/07 06:40:13;;;;;;;16.00;6.57;;;;;;;21.84;40.98;102093.78;5033886;28;20410;-67
2022/05/07 06:42:39;;;;;;;13.68;7.32;;;;;;;21.89;40.13;102097.75;5033329;28;20074;-67
2022/05/07 06:45:05;;;;;;;12.25;7.18;;;;;;;21.96;40.18;102087.00;5033247;28;20172;-65
2022/05/07 06:47:31;;;;;;;13.75;7.72;;;;;;;22.05;40.21;102088.69;5027316;28;20069;-66
2022/05/07 06:49:56;;;;;;;10.38;6.20;;;;;;;22.14;40.69;102093.09;5033940;28;20021;-67
2022/05/07 06:52:22;;;;;;;20.80;8.30;;;;;;;22.32;40.78;102092.91;5033869;28;20376;-66
2022/05/07 06:54:47;;;;;;;15.63;7.53;;;;;;;22.46;40.77;102084.84;5033764;28;20079;-66
2022/05/07 06:57:12;;;;;;;15.05;7.20;;;;;;;22.59;39.75;102090.59;5033628;28;20057;-66
2022/05/07 06:59:38;;;;;;;15.77;7.72;;;;;;;22.74;40.30;102092.59;5033415;28;20050;-66
2022/05/07 07:02:03;;;;;;;16.13;7.45;;;;;;;22.93;40.42;102103.97;5037005;28;20053;-66
2022/05/07 07:04:29;;;;;;;10.82;6.95;;;;;;;23.10;39.54;102091.03;5037414;28;20049;-66
2022/05/07 07:06:54;;;;;;;10.55;6.63;;;;;;;23.17;39.24;102089.31;5037498;28;20025;-67
2022/05/07 07:09:19;;;;;;;12.23;6.45;;;;;;;23.28;39.21;102097.09;5037193;28;20021;-67
2022/05/07 07:11:45;;;;;;;15.57;6.82;;;;;;;23.39;39.25;102091.25;5037372;28;20033;-67
2022/05/07 07:14:11;;;;;;;10.85;6.78;;;;;;;23.48;39.26;102090.13;5037315;28;20053;-65
2022/05/07 07:16:36;;;;;;;11.75;6.40;;;;;;;23.60;39.37;102096.88;5036699;28;20475;-62
2022/05/07 07:19:02;;;;;;;12.70;5.95;;;;;;;23.71;38.72;102093.72;5036180;28;20018;-59
2022/05/07 07:21:27;;;;;;;13.88;6.93;;;;;;;23.78;39.34;102094.66;5037012;28;20040;-62
2022/05/07 07:23:53;;;;;;;17.90;6.82;;;;;;;23.87;38.99;102102.81;5036583;28;20104;-61
2022/05/07 07:26:18;;;;;;;12.88;6.60;;;;;;;23.92;38.56;102105.84;5037112;28;20368;-62
2022/05/07 07:28:44;;;;;;;8.75;5.38;;;;;;;24.01;39.50;102097.34;5036917;28;20129;-61
2022/05/07 07:31:10;;;;;;;12.90;6.45;;;;;;;24.07;38.52;102098.50;5036635;28;20025;-61
2022/05/07 07:33:37;;;;;;;13.25;6.55;;;;;;;24.08;39.31;102094.75;5036508;28;20107;-62
2022/05/07 07:36:02;;;;;;;13.38;6.40;;;;;;;24.11;38.88;102094.41;5036639;28;20025;-61
2022/05/07 07:38:29;;;;;;;22.98;6.43;;;;;;;24.16;38.67;102090.06;5036950;28;20026;-61
2022/05/07 07:40:54;;;;;;;20.88;6.78;;;;;;;24.21;38.08;102090.34;5036663;28;20029;-62
2022/05/07 07:43:22;;;;;;;28.45;6.72;;;;;;;24.26;38.94;102087.88;5036528;28;20029;-61
2022/05/07 07:48:32;;;;;;;18.02;7.00;;;;;;;24.40;38.80;102088.91;5036223;28;20064;-60
2022/05/07 07:50:57;;;;;;;11.27;5.95;;;;;;;24.46;38.08;102093.66;5051593;28;20041;-61
2022/05/07 07:53:24;;;;;;;17.40;6.25;;;;;;;24.54;38.05;102090.81;5036194;28;20068;-61
2022/05/07 07:55:50;;;;;;;12.25;5.82;;;;;;;24.62;37.66;102093.44;5036734;28;20497;-60
2022/05/07 07:58:15;;;;;;;11.82;6.30;;;;;;;24.70;37.95;102085.16;5036010;28;20044;-60
2022/05/07 08:00:42;;;;;;;51.67;9.70;;;;;;;24.80;37.80;102095.84;5035627;28;20463;-60
2022/05/07 08:03:12;;;;;;;16.83;7.45;;;;;;;24.89;37.24;102095.56;5036240;28;20441;-59
2022/05/07 08:05:39;;;;;;;13.32;7.35;;;;;;;25.01;37.60;102095.06;5036042;28;20072;-59
2022/05/07 08:13:34;;;;;;;23.55;8.25;;;;;;;25.20;37.63;102094.44;5034522;28;20075;-59
2022/05/07 08:16:03;;;;;;;23.33;6.65;;;;;;;25.31;37.33;102094.78;5035674;28;20075;-59
2022/05/07 08:18:28;;;;;;;18.40;6.07;;;;;;;25.53;36.95;102092.06;5035340;28;20021;-58
2022/05/07 08:20:55;;;;;;;39.00;8.40;;;;;;;25.67;36.88;102094.75;5035187;28;20032;-58
2022/05/07 08:23:20;;;;;;;11.32;6.38;;;;;;;25.80;36.71;102102.22;5035327;28;20021;-57
2022/05/07 08:25:45;;;;;;;10.85;6.38;;;;;;;25.89;37.02;102104.66;5035762;28;20037;-59
2022/05/07 08:28:11;;;;;;;13.57;6.30;;;;;;;25.97;36.05;102095.41;5035132;28;20029;-59
2022/05/07 08:30:37;;;;;;;16.85;7.40;;;;;;;26.01;36.49;102103.06;5035112;28;20051;-59
2022/05/07 08:33:04;;;;;;;23.85;6.85;;;;;;;26.05;36.50;102104.34;5034775;28;20021;-58
2022/05/07 08:35:30;;;;;;;54.20;8.07;;;;;;;26.10;36.03;102105.66;5035174;28;20026;-60
2022/05/07 08:37:55;;;;;;;62.35;14.43;;;;;;;26.10;36.03;102108.41;5035309;28;20383;-59
2022/05/07 08:40:22;;;;;;;184.75;31.50;;;;;;;26.07;36.21;102106.91;5035133;28;20017;-59
2022/05/07 08:42:47;;;;;;;195.63;30.95;;;;;;;26.05;36.05;102109.84;5035189;28;20021;-59
2022/05/07 08:45:13;;;;;;;132.13;15.38;;;;;;;26.07;35.93;102111.56;5035040;28;20100;-60
2022/05/07 08:47:39;;;;;;;75.32;14.02;;;;;;;26.09;35.94;102109.44;5034488;28;20045;-60
2022/05/07 08:50:09;;;;;;;49.38;8.77;;;;;;;26.14;36.13;102099.59;5034568;28;20018;-61
2022/05/07 08:52:39;;;;;;;56.92;11.55;;;;;;;26.27;35.69;102107.09;5034646;28;20036;-60
2022/05/07 08:55:05;;;;;;;22.73;7.93;;;;;;;26.42;35.76;102110.56;5034614;28;20044;-59
2022/05/07 08:57:30;;;;;;;40.88;9.77;;;;;;;26.51;35.40;102106.59;5034663;28;20455;-58
2022/05/07 08:59:56;;;;;;;25.55;7.60;;;;;;;26.65;35.24;102111.13;5034433;28;20376;-60
2022/05/07 09:02:21;;;;;;;21.83;7.47;;;;;;;27.04;35.52;102094.84;5016646;28;20368;-60
2022/05/07 09:04:57;;;;;;;30.73;7.80;;;;;;;27.43;34.78;102099.63;5034854;28;20013;-59
2022/05/07 09:07:22;;;;;;;13.43;7.05;;;;;;;27.83;34.32;102100.53;5034207;28;20025;-59
2022/05/07 09:09:49;;;;;;;42.08;8.63;;;;;;;28.19;33.83;102106.47;5034940;28;20034;-61
2022/05/07 09:12:30;;;;;;;20.38;7.47;;;;;;;28.54;33.33;102100.66;5034198;28;20053;-59
2022/05/07 09:15:04;;;;;;;20.88;8.43;;;;;;;28.91;32.84;102099.06;5034514;28;20368;-60
2022/05/07 09:17:29;;;;;;;38.80;9.23;;;;;;;29.21;33.64;102101.03;5034059;28;20031;-60
2022/05/07 09:19:54;;;;;;;13.35;7.50;;;;;;;29.57;33.45;102103.16;5034189;28;20034;-59
2022/05/07 09:22:20;;;;;;;21.63;6.90;;;;;;;29.97;32.01;102098.22;5033848;28;20017;-60
2022/05/07 09:24:55;;;;;;;23.33;7.07;;;;;;;30.42;32.20;102090.56;5032802;28;20103;-60
2022/05/07 09:27:23;;;;;;;21.02;7.03;;;;;;;30.83;32.10;102089.88;5033630;28;20029;-60
2022/05/07 09:30:03;;;;;;;22.35;6.22;;;;;;;31.00;31.45;102080.72;5033698;28;20053;-60
2022/05/07 09:32:36;;;;;;;15.98;8.07;;;;;;;31.16;31.39;102089.47;5033403;28;20030;-60
2022/05/07 09:35:56;;;;;;;34.88;8.65;;;;;;;31.41;31.15;102082.69;5033755;28;20445;-58
2022/05/07 09:37:58;;;;;;;11.93;7.43;;;;;;;31.87;30.82;102081.13;5023463;28;20037;-61
2022/05/07 09:40:23;;;;;;;20.42;7.53;;;;;;;32.05;30.52;102081.06;5033683;28;20475;-60
2022/05/07 09:42:49;;;;;;;14.52;7.38;;;;;;;31.97;30.56;102086.91;5033718;28;20079;-60
2022/05/07 09:45:15;;;;;;;22.45;7.18;;;;;;;31.84;30.38;102090.75;5033409;28;20017;-59
2022/05/07 09:47:40;;;;;;;15.13;6.85;;;;;;;31.67;30.55;102082.31;5033076;28;20132;-60
2022/05/07 09:50:20;;;;;;;19.77;7.25;;;;;;;31.54;30.54;102082.53;5033520;28;20043;-61
2022/05/07 09:58:15;;;;;;;14.68;8.20;;;;;;;31.59;30.17;102074.34;5033226;28;20032;-59
2022/05/07 10:00:57;;;;;;;16.85;8.68;;;;;;;32.01;29.57;102088.16;5033189;28;20092;-60
2022/05/07 10:03:28;;;;;;;13.10;7.75;;;;;;;32.81;28.65;102078.91;5016041;28;20494;-60
2022/05/07 10:06:16;;;;;;;15.77;8.57;;;;;;;32.86;28.98;102077.34;5015675;28;20470;-59
2022/05/07 10:09:14;;;;;;;16.80;9.48;;;;;;;32.99;28.95;102068.72;5033321;28;20491;-61
2022/05/07 10:11:40;;;;;;;15.30;9.43;;;;;;;33.20;28.11;102070.81;5033226;28;20071;-60
2022/05/07 10:14:05;;;;;;;12.32;7.97;;;;;;;33.33;27.55;102070.53;5033334;28;20029;-60
2022/05/07 10:16:31;;;;;;;15.93;9.60;;;;;;;33.51;28.88;102067.50;5015345;28;20525;-62
2022/05/07 10:18:56;;;;;;;17.70;9.65;;;;;;;33.75;28.08;102060.72;5032672;28;20040;-61
2022/05/07 10:21:22;;;;;;;15.73;9.30;;;;;;;34.08;28.40;102067.41;5032963;28;20044;-62
2022/05/07 10:23:50;;;;;;;16.13;9.15;;;;;;;34.32;27.60;102058.59;5033121;28;20155;-61
2022/05/07 10:26:15;;;;;;;17.65;9.82;;;;;;;34.61;27.10;102056.50;5033421;28;20029;-62
2022/05/07 10:28:42;;;;;;;16.45;9.68;;;;;;;34.77;27.16;102055.59;5033118;28;20030;-61
2022/05/07 10:31:46;;;;;;;16.98;9.15;;;;;;;35.00;27.32;102048.88;5032887;28;20049;-61
2022/05/07 10:34:23;;;;;;;13.93;8.60;;;;;;;35.22;27.51;102046.09;5023544;28;20491;-60
2022/05/07 10:37:07;;;;;;;14.48;7.85;;;;;;;35.60;26.51;102048.69;5036502;28;20025;-62
2022/05/07 10:39:33;;;;;;;14.32;8.57;;;;;;;35.94;26.53;102044.50;5037116;28;20076;-63
2022/05/07 10:42:02;;;;;;;46.85;11.38;;;;;;;36.09;26.11;102049.38;5037205;28;20390;-62
2022/05/07 10:44:32;;;;;;;39.33;10.52;;;;;;;36.28;25.86;102055.34;5019800;28;20033;-62
2022/05/07 10:47:09;;;;;;;20.77;9.48;;;;;;;36.15;26.53;102046.38;5036914;28;20172;-63
2022/05/07 10:49:35;;;;;;;16.35;8.65;;;;;;;35.86;26.62;102036.63;5037096;28;20021;-61
2022/05/07 10:52:03;;;;;;;21.25;8.55;;;;;;;35.65;26.20;102040.38;5036937;28;20494;-63
2022/05/07 10:54:29;;;;;;;14.70;9.23;;;;;;;35.53;26.61;102042.47;5037064;28;20033;-62
2022/05/07 10:56:56;;;;;;;18.67;8.32;;;;;;;35.46;26.09;102036.25;5052290;28;20047;-62
2022/05/07 10:59:24;;;;;;;17.30;8.50;;;;;;;35.52;26.28;102029.63;5036748;28;20029;-60
2022/05/07 11:01:50;;;;;;;15.23;8.82;;;;;;;35.69;26.28;102032.31;5037644;28;20525;-62
2022/05/07 11:04:21;;;;;;;18.00;8.75;;;;;;;36.00;26.42;102032.28;5037174;28;20035;-62
2022/05/07 11:06:52;;;;;;;16.87;9.00;;;;;;;36.34;25.42;102020.75;5036892;28;20104;-61
2022/05/07 11:09:23;;;;;;;16.90;8.18;;;;;;;36.63;25.12;102030.44;5036855;28;20530;-62
2022/05/07 11:11:54;;;;;;;63.17;10.65;;;;;;;36.83;25.25;102027.69;5036911;28;20017;-60
2022/05/07 11:14:30;;;;;;;60.08;11.13;;;;;;;37.13;25.35;102024.97;5036598;28;20040;-60
2022/05/07 11:16:57;;;;;;;30.73;8.75;;;;;;;37.38;24.91;102028.94;5036728;28;20060;-62
2022/05/07 11:19:35;;;;;;;29.17;9.70;;;;;;;37.73;25.03;102023.38;5036596;28;20028;-60
2022/05/07 11:22:03;;;;;;;36.28;9.65;;;;;;;38.06;24.26;102022.78;5036652;28;20513;-60
2022/05/07 11:24:30;;;;;;;29.90;9.15;;;;;;;38.32;24.22;102020.75;5036480;28;20095;-63
2022/05/07 11:26:58;;;;;;;21.13;8.98;;;;;;;38.47;24.07;102017.09;5051990;28;20116;-62
2022/05/07 11:29:25;;;;;;;20.50;6.93;;;;;;;38.51;23.81;102015.38;5018999;28;20025;-61
2022/05/07 11:32:04;;;;;;;20.60;8.68;;;;;;;38.47;24.05;102005.88;5036410;28;20532;-62
2022/05/07 11:34:38;;;;;;;13.35;7.00;;;;;;;38.38;23.73;102012.06;5036152;28;20402;-59
2022/05/07 11:37:11;;;;;;;13.35;6.32;;;;;;;38.38;23.67;102000.88;5018196;28;20410;-61
2022/05/07 11:39:46;;;;;;;9.60;6.57;;;;;;;38.47;23.44;101995.50;5036234;28;20391;-61
2022/05/07 11:42:11;;;;;;;144.75;13.68;;;;;;;38.51;24.24;101999.41;5036088;28;20030;-61
2022/05/07 11:47:24;;;;;;;14.45;5.45;;;;;;;38.31;23.25;101991.88;5034704;28;20418;-61
2022/05/07 11:50:03;;;;;;;11.45;6.30;;;;;;;38.33;23.25;101988.84;5035843;28;20109;-63
2022/05/07 11:52:29;;;;;;;31.67;6.35;;;;;;;38.49;23.56;101995.22;5050932;28;20487;-60